Time;durP1;ratioP1;P1;durP2;ratioP2;P2;SDS_P1;SDS_P2;PMS_P1;PMS_P2;Temp;Humidity;BMP_temperature;BMP_pressure;BME280_temperature;BME280_humidity;BME280_pressure;Samples;Min_cycle;Max_cycle;Signal;HPM_P1;HPM_P2
2022/01/22 00:02:05;;;;;;;9.48;7.55;;;7.90;74.70;;;;;;5008757;28;20046;-43
2022/01/22 00:04:33;;;;;;;15.13;8.27;;;7.90;74.70;;;;;;4994244;28;20758;-43
2022/01/22 00:07:02;;;;;;;14.85;9.50;;;7.90;74.60;;;;;;5004680;28;20579;-43
2022/01/22 00:09:51;;;;;;;12.02;8.57;;;7.90;74.60;;;;;;4998111;28;20177;-43
2022/01/22 00:12:43;;;;;;;11.52;7.78;;;7.90;74.40;;;;;;4988738;28;20046;-44
2022/01/22 00:15:12;;;;;;;14.35;8.63;;;7.90;74.40;;;;;;4989830;28;20084;-43
2022/01/22 00:17:40;;;;;;;13.35;8.40;;;7.90;74.40;;;;;;4995433;28;20104;-43
2022/01/22 00:20:08;;;;;;;13.57;9.07;;;7.90;74.40;;;;;;4990636;28;20092;-44
2022/01/22 00:22:36;;;;;;;11.20;8.23;;;7.90;74.40;;;;;;4996363;28;20092;-42
2022/01/22 00:25:08;;;;;;;12.40;8.55;;;7.90;74.40;;;;;;4997592;28;20041;-43
2022/01/22 00:27:37;;;;;;;17.73;9.40;;;7.90;74.50;;;;;;4989144;28;20038;-42
2022/01/22 00:30:06;;;;;;;12.00;8.57;;;7.90;74.40;;;;;;4970831;28;20042;-44
2022/01/22 00:32:34;;;;;;;16.35;8.57;;;7.90;74.40;;;;;;4989020;28;20053;-45
2022/01/22 00:35:01;;;;;;;15.20;9.25;;;7.90;74.30;;;;;;4988773;28;20042;-42
2022/01/22 00:37:27;;;;;;;17.35;9.48;;;7.90;74.30;;;;;;4971252;28;20102;-44
2022/01/22 00:39:54;;;;;;;14.10;8.52;;;7.90;74.30;;;;;;4987980;28;21928;-42
2022/01/22 00:42:22;;;;;;;15.38;9.25;;;7.90;74.30;;;;;;4988606;28;20112;-44
2022/01/22 00:44:51;;;;;;;22.08;9.85;;;7.90;74.30;;;;;;4988792;28;20062;-44
2022/01/22 00:47:18;;;;;;;15.43;9.90;;;7.90;74.40;;;;;;4982924;28;20053;-43
2022/01/22 00:49:46;;;;;;;17.25;9.35;;;7.90;74.50;;;;;;4964189;28;20536;-44
2022/01/22 00:52:13;;;;;;;20.48;9.95;;;7.90;74.60;;;;;;5008111;28;20050;-44
2022/01/22 00:54:40;;;;;;;19.80;10.55;;;7.90;74.60;;;;;;4990675;28;20563;-45
2022/01/22 00:57:07;;;;;;;11.77;9.63;;;7.90;74.70;;;;;;4990436;28;20542;-43
2022/01/22 00:59:34;;;;;;;12.65;8.88;;;7.90;74.80;;;;;;5002444;28;20054;-43
2022/01/22 01:02:02;;;;;;;18.52;10.40;;;7.90;74.80;;;;;;5002278;28;20421;-42
2022/01/22 01:04:33;;;;;;;13.10;10.57;;;7.80;74.90;;;;;;4988774;28;20049;-43
2022/01/22 01:07:00;;;;;;;17.50;10.50;;;7.80;75.00;;;;;;4979802;28;20056;-42
2022/01/22 01:09:27;;;;;;;13.88;10.32;;;7.80;75.10;;;;;;4970707;28;20042;-44
2022/01/22 01:11:59;;;;;;;20.60;11.80;;;7.70;75.30;;;;;;4972451;28;20206;-43
2022/01/22 01:17:57;;;;;;;12.40;11.00;;;7.70;75.40;;;;;;4933588;28;20054;-43
2022/01/22 01:34:02;;;;;;;19.10;13.88;;;7.70;75.90;;;;;;5003912;28;20077;-42
2022/01/22 01:36:32;;;;;;;20.67;14.35;;;7.70;76.10;;;;;;4971955;28;20045;-43
2022/01/22 01:39:04;;;;;;;17.05;13.52;;;7.70;76.20;;;;;;4974447;28;20159;-42
2022/01/22 01:44:02;;;;;;;19.45;13.88;;;7.60;76.20;;;;;;4993626;28;20699;-43
2022/01/22 01:46:56;;;;;;;18.55;13.95;;;7.60;76.30;;;;;;4993463;28;20879;-44
2022/01/22 01:49:25;;;;;;;18.77;13.52;;;7.70;76.40;;;;;;4993675;28;20065;-43
2022/01/22 01:51:55;;;;;;;24.65;14.40;;;7.70;76.40;;;;;;5010052;28;20060;-43
2022/01/22 01:54:33;;;;;;;17.20;13.40;;;7.70;76.40;;;;;;4993162;28;20050;-43
2022/01/22 01:59:49;;;;;;;19.30;14.63;;;7.70;76.40;;;;;;4998362;28;20050;-45
2022/01/22 02:02:26;;;;;;;22.75;14.25;;;7.60;76.40;;;;;;4954893;28;20057;-42
2022/01/22 02:04:53;;;;;;;19.30;14.38;;;7.60;76.40;;;;;;4958742;28;20085;-43
2022/01/22 02:07:21;;;;;;;20.88;14.48;;;7.70;77.10;;;;;;4973447;28;20498;-43
2022/01/22 02:09:59;;;;;;;19.08;13.70;;;7.70;76.50;;;;;;4990737;28;20049;-43
2022/01/22 02:23:35;;;;;;;23.42;14.10;;;7.70;76.30;;;;;;4977407;28;20049;-42
2022/01/22 02:26:05;;;;;;;18.33;13.98;;;7.80;76.30;;;;;;4992726;28;20053;-43
2022/01/22 02:28:41;;;;;;;18.40;12.82;;;7.80;76.20;;;;;;5009894;28;20046;-42
2022/01/22 02:31:15;;;;;;;18.45;13.48;;;7.80;76.20;;;;;;4993181;28;20053;-41
2022/01/22 02:36:44;;;;;;;19.80;13.55;;;7.80;76.10;;;;;;4977831;28;20051;-42
2022/01/22 02:39:22;;;;;;;19.05;13.93;;;7.80;76.10;;;;;;5007655;28;20057;-44
2022/01/22 02:41:51;;;;;;;18.95;12.57;;;7.80;76.10;;;;;;5005713;28;20042;-44
2022/01/22 02:44:32;;;;;;;20.75;14.07;;;7.80;76.00;;;;;;4994428;28;20065;-43
2022/01/22 02:47:05;;;;;;;18.45;13.38;;;7.80;76.00;;;;;;4984460;28;20054;-43
2022/01/22 02:49:33;;;;;;;17.98;13.73;;;7.90;76.10;;;;;;5004553;28;20053;-43
2022/01/22 02:52:03;;;;;;;18.42;14.05;;;7.90;76.10;;;;;;4987414;28;20519;-45
2022/01/22 02:54:31;;;;;;;21.85;13.95;;;7.90;76.00;;;;;;4997103;28;20073;-43
2022/01/22 02:56:57;;;;;;;19.10;13.68;;;7.90;76.60;;;;;;4983570;28;20112;-43
2022/01/22 02:59:24;;;;;;;19.77;14.00;;;7.90;75.90;;;;;;5010285;28;20058;-45
2022/01/22 03:01:52;;;;;;;21.95;13.98;;;7.90;75.90;;;;;;4992479;28;20067;-43
2022/01/22 03:04:21;;;;;;;22.23;15.13;;;7.90;75.90;;;;;;5008611;28;20050;-43
2022/01/22 03:06:49;;;;;;;19.67;13.88;;;7.90;76.00;;;;;;4997015;28;20045;-43
2022/01/22 03:09:26;;;;;;;25.98;13.50;;;7.90;75.90;;;;;;5008352;28;20556;-44
2022/01/22 03:12:20;;;;;;;17.38;13.20;;;7.90;75.90;;;;;;4970106;28;20046;-44
2022/01/22 03:23:09;;;;;;;19.77;14.52;;;8.00;75.90;;;;;;5009836;28;20042;-45
2022/01/22 03:28:20;;;;;;;19.52;14.13;;;8.00;75.80;;;;;;4981167;28;20121;-43
2022/01/22 03:30:47;;;;;;;21.33;13.77;;;8.00;75.80;;;;;;4997812;28;20117;-43
2022/01/22 03:33:20;;;;;;;21.75;14.20;;;8.00;75.80;;;;;;4982805;28;20115;-42
2022/01/22 03:35:54;;;;;;;20.73;14.23;;;7.90;75.80;;;;;;4991511;28;20092;-44
2022/01/22 03:38:22;;;;;;;21.15;15.05;;;8.00;75.90;;;;;;4996619;28;20050;-43
2022/01/22 03:40:50;;;;;;;20.75;14.00;;;8.00;75.90;;;;;;5066037;23;20503;-45
2022/01/22 03:43:18;;;;;;;16.58;14.57;;;8.00;75.90;;;;;;5078959;28;20515;-44
2022/01/22 03:45:49;;;;;;;21.33;15.65;;;8.00;75.90;;;;;;5070597;28;20051;-45
2022/01/22 03:48:16;;;;;;;20.00;15.05;;;8.00;76.00;;;;;;5066848;28;20800;-47
2022/01/22 03:50:43;;;;;;;21.15;15.18;;;8.00;76.00;;;;;;5062803;28;20036;-45
2022/01/22 03:53:10;;;;;;;26.77;15.52;;;8.00;76.10;;;;;;5062752;28;20052;-48
2022/01/22 03:58:15;;;;;;;21.85;14.82;;;8.00;76.10;;;;;;5074967;28;20090;-44
2022/01/22 04:00:44;;;;;;;20.95;15.18;;;8.00;76.20;;;;;;5062285;28;20139;-46
2022/01/22 04:03:55;;;;;;;21.33;15.15;;;8.00;76.20;;;;;;5070877;28;20408;-45
2022/01/22 04:08:53;;;;;;;25.23;15.10;;;8.00;76.20;;;;;;5067873;28;20131;-46
2022/01/22 04:11:20;;;;;;;21.20;16.52;;;8.00;76.10;;;;;;5062189;28;20055;-45
2022/01/22 04:13:50;;;;;;;27.05;15.73;;;8.10;76.10;;;;;;5070440;28;20040;-46
2022/01/22 04:16:17;;;;;;;17.40;14.73;;;8.00;76.10;;;;;;5041526;28;20106;-45
2022/01/22 04:27:11;;;;;;;25.65;16.80;;;8.10;76.20;;;;;;5042762;28;20040;-45
2022/01/22 04:29:38;;;;;;;22.42;15.13;;;8.10;76.20;;;;;;5066632;28;20561;-45
2022/01/22 04:32:06;;;;;;;24.23;15.70;;;8.10;76.30;;;;;;5039084;28;20106;-47
2022/01/22 04:34:33;;;;;;;21.58;16.00;;;8.00;76.30;;;;;;5044245;28;20037;-44
2022/01/22 04:37:00;;;;;;;20.77;16.35;;;8.00;76.30;;;;;;5049433;28;20107;-45
2022/01/22 04:39:27;;;;;;;27.15;16.25;;;8.10;76.40;;;;;;5048934;28;20116;-45
2022/01/22 04:41:56;;;;;;;23.52;16.30;;;8.00;76.40;;;;;;5039508;28;20037;-45
2022/01/22 04:44:27;;;;;;;22.27;16.98;;;8.00;77.10;;;;;;5044058;28;20064;-46
2022/01/22 04:55:01;;;;;;;24.80;17.27;;;8.00;76.80;;;;;;5043403;28;20045;-45
2022/01/22 04:57:38;;;;;;;23.27;15.65;;;8.00;76.80;;;;;;5049647;28;20115;-46
2022/01/22 05:00:11;;;;;;;23.45;17.05;;;8.10;76.90;;;;;;5068303;28;20056;-45
2022/01/22 05:03:15;;;;;;;24.17;16.70;;;8.10;76.90;;;;;;5047177;28;20045;-45
2022/01/22 05:06:17;;;;;;;20.70;15.90;;;8.10;77.40;;;;;;5069446;28;20059;-45
2022/01/22 05:08:51;;;;;;;25.92;16.23;;;8.10;76.80;;;;;;5041302;28;20076;-47
2022/01/22 05:11:21;;;;;;;22.80;17.70;;;8.20;76.80;;;;;;5045247;28;20053;-48
2022/01/22 05:13:51;;;;;;;20.15;16.10;;;8.10;76.80;;;;;;5049375;28;20128;-47
2022/01/22 05:16:19;;;;;;;24.38;16.45;;;8.20;76.90;;;;;;5065151;28;20427;-45
2022/01/22 05:18:58;;;;;;;27.75;17.95;;;8.20;76.90;;;;;;5053713;28;20052;-46
2022/01/22 05:21:27;;;;;;;21.75;16.88;;;8.20;76.90;;;;;;5046632;28;20047;-45
2022/01/22 05:23:58;;;;;;;27.38;17.55;;;8.20;76.90;;;;;;5051078;28;20127;-45
2022/01/22 05:27:10;;;;;;;21.15;16.75;;;8.20;76.90;;;;;;5064839;28;20062;-45
2022/01/22 05:32:27;;;;;;;26.00;16.77;;;8.20;76.80;;;;;;5037545;28;20052;-45
2022/01/22 05:38:04;;;;;;;27.80;18.20;;;8.20;76.70;;;;;;5048752;28;20044;-45
2022/01/22 05:40:30;;;;;;;26.20;18.13;;;8.20;76.70;;;;;;5053748;28;20052;-44
2022/01/22 05:42:59;;;;;;;27.35;18.88;;;8.20;76.80;;;;;;5077159;28;20106;-46
2022/01/22 05:45:26;;;;;;;28.73;18.48;;;8.20;76.80;;;;;;5064461;28;20052;-45
2022/01/22 05:47:53;;;;;;;24.75;18.92;;;8.20;76.80;;;;;;5091579;28;20044;-45
2022/01/22 05:50:30;;;;;;;25.65;20.60;;;8.30;76.90;;;;;;5083994;28;20055;-45
2022/01/22 05:53:06;;;;;;;29.42;18.95;;;8.30;76.90;;;;;;5044649;28;20045;-48
2022/01/22 06:01:09;;;;;;;28.52;19.17;;;8.30;77.10;;;;;;5059899;28;20044;-47
2022/01/22 06:03:56;;;;;;;31.23;20.17;;;8.30;77.00;;;;;;5048295;28;20053;-46
2022/01/22 06:06:23;;;;;;;29.00;20.05;;;8.30;77.00;;;;;;5054263;28;20056;-48
2022/01/22 06:08:54;;;;;;;24.75;18.17;;;8.30;77.10;;;;;;5042144;28;20079;-47
2022/01/22 06:11:26;;;;;;;27.33;19.98;;;8.30;77.20;;;;;;5042286;28;20060;-44
2022/01/22 06:13:56;;;;;;;25.15;19.33;;;8.30;77.20;;;;;;5030590;28;20131;-46
2022/01/22 06:16:39;;;;;;;;;;;8.30;77.20;;;;;;5045096;28;20052;-46
2022/01/22 06:19:26;;;;;;;29.00;18.67;;;8.30;77.60;;;;;;5061613;28;19927;-46
2022/01/22 06:21:54;;;;;;;31.02;20.38;;;8.30;76.80;;;;;;5044237;28;20045;-45
2022/01/22 06:24:22;;;;;;;31.02;20.42;;;8.30;77.00;;;;;;5044658;28;20056;-46
2022/01/22 06:26:51;;;;;;;28.00;20.48;;;8.30;77.10;;;;;;5037498;28;20048;-48
2022/01/22 06:29:19;;;;;;;27.95;20.60;;;8.30;77.20;;;;;;5055025;28;20082;-45
2022/01/22 06:31:46;;;;;;;30.67;20.90;;;8.30;77.30;;;;;;5056760;28;20049;-46
2022/01/22 06:34:13;;;;;;;30.73;21.40;;;8.30;77.30;;;;;;5052182;28;20443;-45
2022/01/22 06:36:40;;;;;;;31.23;22.83;;;8.30;77.40;;;;;;5043757;28;20045;-46
2022/01/22 06:39:13;;;;;;;31.35;21.63;;;8.30;77.40;;;;;;5050941;28;20048;-46
2022/01/22 06:41:59;;;;;;;31.98;22.13;;;8.20;77.40;;;;;;5081638;28;20502;-44
2022/01/22 06:44:26;;;;;;;31.88;21.67;;;8.30;77.50;;;;;;5083214;28;20055;-46
2022/01/22 06:47:11;;;;;;;36.90;21.90;;;8.30;77.60;;;;;;5044357;28;20041;-46
2022/01/22 06:50:01;;;;;;;32.38;22.40;;;8.30;77.60;;;;;;5049749;28;20091;-46
2022/01/22 06:52:58;;;;;;;32.40;22.95;;;8.30;77.60;;;;;;5061954;28;20518;-45
2022/01/22 06:55:44;;;;;;;33.97;23.90;;;8.30;77.60;;;;;;5044176;28;20095;-57
2022/01/22 06:58:14;;;;;;;;;;;8.30;77.60;;;;;;5050826;28;20076;-57
2022/01/22 07:00:50;;;;;;;30.38;20.95;;;8.40;77.90;;;;;;5049349;28;19924;-57
2022/01/22 07:03:26;;;;;;;36.88;22.35;;;8.40;77.30;;;;;;5070321;28;20139;-57
2022/01/22 07:06:07;;;;;;;36.53;23.38;;;8.30;77.30;;;;;;5043561;28;20059;-56
2022/01/22 07:08:35;;;;;;;35.63;24.73;;;8.40;77.40;;;;;;5036416;28;20091;-56
2022/01/22 07:11:03;;;;;;;42.63;26.55;;;8.40;77.40;;;;;;5037239;28;20070;-57
2022/01/22 07:13:33;;;;;;;36.13;25.38;;;8.30;77.30;;;;;;5042260;28;20048;-56
2022/01/22 07:16:01;;;;;;;35.78;25.80;;;8.30;77.40;;;;;;5048855;28;20048;-56
2022/01/22 07:18:31;;;;;;;38.40;25.05;;;8.30;77.40;;;;;;5061598;28;20127;-57
2022/01/22 07:21:08;;;;;;;40.30;27.02;;;8.30;77.50;;;;;;5057232;28;20041;-57
2022/01/22 07:26:05;;;;;;;36.97;24.83;;;8.30;77.60;;;;;;5041148;28;20059;-56
2022/01/22 07:28:50;;;;;;;39.80;25.77;;;8.30;77.70;;;;;;5053704;28;20420;-56
2022/01/22 07:31:20;;;;;;;37.53;24.42;;;8.30;77.60;;;;;;5066893;28;20036;-56
2022/01/22 07:33:48;;;;;;;38.00;24.95;;;8.30;77.70;;;;;;5069851;28;20633;-56
2022/01/22 07:36:15;;;;;;;37.15;25.10;;;8.30;77.80;;;;;;5038991;28;20045;-56
2022/01/22 07:38:43;;;;;;;35.17;25.17;;;8.30;77.80;;;;;;5054753;28;20087;-57
2022/01/22 07:41:12;;;;;;;41.80;26.02;;;8.30;77.80;;;;;;5047781;28;20811;-56
2022/01/22 07:43:45;;;;;;;38.75;24.70;;;8.30;77.90;;;;;;5078640;28;20075;-56
2022/01/22 07:46:37;;;;;;;36.55;24.70;;;8.30;78.00;;;;;;5039581;28;20839;-56
2022/01/22 07:49:14;;;;;;;35.47;24.45;;;8.30;78.00;;;;;;5019047;28;20087;-56
2022/01/22 07:51:43;;;;;;;37.80;24.40;;;8.20;78.00;;;;;;5037933;28;20131;-57
2022/01/22 07:54:10;;;;;;;36.85;25.05;;;8.30;78.10;;;;;;5037804;28;21079;-55
2022/01/22 07:56:37;;;;;;;34.97;23.02;;;8.30;78.20;;;;;;5042016;28;20045;-56
2022/01/22 07:59:04;;;;;;;41.08;25.83;;;8.30;78.20;;;;;;5042509;28;20511;-56
2022/01/22 08:01:35;;;;;;;37.63;25.30;;;8.30;78.20;;;;;;5035631;28;20514;-55
2022/01/22 08:04:24;;;;;;;37.92;24.55;;;8.30;78.20;;;;;;5068765;28;20369;-57
2022/01/22 08:07:10;;;;;;;36.72;25.35;;;8.30;78.90;;;;;;5062122;28;20055;-56
2022/01/22 08:09:57;;;;;;;37.55;24.73;;;8.30;78.30;;;;;;5052293;28;20537;-56
2022/01/22 08:12:32;;;;;;;33.35;22.95;;;8.20;78.40;;;;;;5036657;28;20055;-56
2022/01/22 08:15:07;;;;;;;39.88;23.98;;;8.30;79.10;;;;;;5046491;28;20036;-56
2022/01/22 08:17:34;;;;;;;34.58;23.35;;;8.30;78.50;;;;;;5045208;28;20048;-57
2022/01/22 08:20:02;;;;;;;37.10;24.10;;;8.30;78.60;;;;;;5037622;28;20076;-57
2022/01/22 08:22:48;;;;;;;35.88;25.70;;;8.30;78.60;;;;;;5060210;28;20059;-56
2022/01/22 08:25:24;;;;;;;32.00;22.60;;;8.30;78.60;;;;;;5056998;28;20051;-56
2022/01/22 08:30:40;;;;;;;33.90;23.27;;;8.40;78.60;;;;;;5038328;28;20048;-55
2022/01/22 08:35:53;;;;;;;36.67;24.80;;;8.40;78.70;;;;;;5036925;28;20066;-56
2022/01/22 08:38:25;;;;;;;39.45;25.27;;;8.40;78.70;;;;;;5046750;28;20484;-56
2022/01/22 08:40:52;;;;;;;33.17;23.38;;;8.40;78.70;;;;;;5036273;28;20072;-56
2022/01/22 08:43:22;;;;;;;34.15;25.50;;;8.40;78.70;;;;;;5036596;28;20053;-56
2022/01/22 08:45:50;;;;;;;40.95;26.75;;;8.40;78.70;;;;;;5034732;28;20048;-56
2022/01/22 08:48:19;;;;;;;38.80;25.65;;;8.40;78.70;;;;;;5043958;28;20048;-56
2022/01/22 08:50:50;;;;;;;36.20;25.77;;;8.40;78.70;;;;;;5035539;28;20439;-56
2022/01/22 08:53:37;;;;;;;33.83;25.27;;;8.50;78.80;;;;;;5059581;28;20040;-56
2022/01/22 08:56:05;;;;;;;35.72;26.30;;;8.50;79.40;;;;;;5038715;28;20037;-57
2022/01/22 08:58:34;;;;;;;41.58;29.10;;;8.50;78.90;;;;;;5051333;28;20044;-55
2022/01/22 09:01:11;;;;;;;43.63;30.17;;;8.50;79.00;;;;;;5033976;28;20061;-56
2022/01/22 09:03:45;;;;;;;47.83;32.67;;;8.50;79.00;;;;;;5047106;28;20044;-56
2022/01/22 09:06:25;;;;;;;41.53;29.80;;;8.60;79.10;;;;;;5040947;28;21387;-55
2022/01/22 09:09:11;;;;;;;40.13;29.65;;;8.60;79.70;;;;;;5043812;28;20091;-55
2022/01/22 09:11:56;;;;;;;38.38;26.70;;;8.60;78.80;;;;;;5066990;28;20044;-56
2022/01/22 09:14:36;;;;;;;40.90;29.90;;;8.60;78.80;;;;;;5058563;28;20040;-56
2022/01/22 09:17:03;;;;;;;40.25;27.20;;;8.70;78.80;;;;;;5036255;28;20041;-55
2022/01/22 09:19:34;;;;;;;40.78;28.38;;;8.70;78.90;;;;;;5064076;28;20060;-56
2022/01/22 09:22:07;;;;;;;42.58;28.35;;;8.70;78.80;;;;;;5061819;28;20055;-56
2022/01/22 09:24:35;;;;;;;41.47;29.52;;;8.70;78.80;;;;;;5041556;28;20135;-56
2022/01/22 09:27:05;;;;;;;44.92;29.98;;;8.70;79.00;;;;;;5047797;28;20432;-56
2022/01/22 09:29:35;;;;;;;39.00;28.08;;;8.70;79.00;;;;;;5038632;28;20051;-56
2022/01/22 09:32:02;;;;;;;43.28;28.70;;;8.80;79.10;;;;;;5049101;28;20520;-56
2022/01/22 09:34:46;;;;;;;44.28;28.92;;;8.80;79.20;;;;;;5034862;28;20039;-56
2022/01/22 09:37:22;;;;;;;45.13;30.88;;;8.90;79.30;;;;;;5063871;28;20037;-56
2022/01/22 09:39:55;;;;;;;44.08;29.80;;;8.90;79.20;;;;;;5029697;28;20044;-56
2022/01/22 09:42:56;;;;;;;46.22;29.02;;;8.90;79.10;;;;;;5040025;28;20057;-57
2022/01/22 09:45:49;;;;;;;42.13;29.75;;;8.90;78.90;;;;;;5058240;28;20091;-56
2022/01/22 09:48:27;;;;;;;44.33;30.77;;;9.00;79.00;;;;;;5058630;28;20399;-57
2022/01/22 09:51:13;;;;;;;48.03;32.55;;;9.00;78.80;;;;;;5062045;28;20500;-55
2022/01/22 09:54:01;;;;;;;49.33;31.48;;;9.10;78.80;;;;;;5037914;28;20473;-55
2022/01/22 09:56:48;;;;;;;49.70;32.75;;;9.10;78.60;;;;;;5050632;28;20663;-57
2022/01/22 09:59:34;;;;;;;46.05;32.55;;;9.10;78.20;;;;;;5061518;28;21064;-56
2022/01/22 10:02:19;;;;;;;48.08;32.75;;;9.20;78.10;;;;;;5048505;28;20049;-57
2022/01/22 10:04:49;;;;;;;48.67;31.98;;;9.10;78.10;;;;;;5040378;28;20044;-56
2022/01/22 10:07:36;;;;;;;46.00;32.35;;;9.10;78.00;;;;;;5069875;28;20094;-56
2022/01/22 10:10:21;;;;;;;49.55;33.22;;;9.10;78.00;;;;;;5059873;28;20167;-56
2022/01/22 10:13:06;;;;;;;52.30;35.13;;;9.10;78.00;;;;;;5071790;28;20076;-56
2022/01/22 10:15:35;;;;;;;51.95;36.05;;;9.10;78.00;;;;;;5066066;28;20044;-56
2022/01/22 10:18:19;;;;;;;54.58;37.65;;;9.10;78.10;;;;;;5047390;28;20051;-56
2022/01/22 10:20:46;;;;;;;55.33;36.45;;;9.10;78.30;;;;;;5059736;28;20500;-56
2022/01/22 10:23:23;;;;;;;48.50;35.40;;;9.10;78.30;;;;;;5065392;28;20115;-56
2022/01/22 10:26:01;;;;;;;50.65;35.58;;;9.10;78.50;;;;;;5058969;28;20506;-56
2022/01/22 10:28:37;;;;;;;54.10;36.33;;;9.10;78.60;;;;;;5058277;28;20056;-56
2022/01/22 10:31:08;;;;;;;56.03;36.40;;;9.10;78.60;;;;;;5045786;28;20067;-55
2022/01/22 10:34:29;;;;;;;48.35;34.05;;;9.20;78.70;;;;;;5062781;28;20499;-55
2022/01/22 10:37:27;;;;;;;41.78;29.52;;;9.20;78.80;;;;;;5088250;28;20109;-57
2022/01/22 10:40:15;;;;;;;41.85;28.73;;;9.20;78.50;;;;;;5071171;28;20041;-56
2022/01/22 10:42:42;;;;;;;36.88;26.30;;;9.20;78.70;;;;;;5075936;28;20463;-56
2022/01/22 10:45:12;;;;;;;34.22;23.42;;;9.20;78.40;;;;;;5079235;28;20097;-55
2022/01/22 10:47:39;;;;;;;33.55;25.95;;;9.20;78.50;;;;;;5070358;28;20052;-56
2022/01/22 10:50:20;;;;;;;40.15;24.00;;;9.20;78.50;;;;;;5079536;28;20039;-57
2022/01/22 10:52:51;;;;;;;32.88;23.40;;;9.30;78.60;;;;;;5091585;22;20053;-53
2022/01/22 10:55:19;;;;;;;35.15;24.13;;;9.30;78.50;;;;;;5058725;28;20115;-56
2022/01/22 10:58:09;;;;;;;33.60;23.27;;;9.30;78.40;;;;;;5079342;28;20521;-56
2022/01/22 11:00:36;;;;;;;36.88;22.17;;;9.30;78.50;;;;;;5072130;28;20102;-57
2022/01/22 11:03:22;;;;;;;35.10;23.25;;;9.30;78.50;;;;;;5078764;28;20047;-54
2022/01/22 11:05:49;;;;;;;32.97;21.13;;;9.30;78.50;;;;;;5063446;28;20044;-54
2022/01/22 11:08:16;;;;;;;31.25;21.52;;;9.40;78.50;;;;;;5055951;28;20095;-56
2022/01/22 11:10:44;;;;;;;33.13;22.33;;;9.40;78.40;;;;;;5064724;28;20048;-55
2022/01/22 11:13:12;;;;;;;32.63;21.63;;;9.40;78.20;;;;;;5068494;28;20040;-57
2022/01/22 11:15:39;;;;;;;33.63;21.70;;;9.40;78.10;;;;;;5057746;28;20045;-55
2022/01/22 11:18:09;;;;;;;29.60;20.67;;;9.50;78.00;;;;;;5050875;28;20507;-55
2022/01/22 11:20:37;;;;;;;31.05;22.15;;;9.50;78.00;;;;;;5060102;28;20064;-56
2022/01/22 11:23:07;;;;;;;28.30;20.55;;;9.50;77.90;;;;;;5068373;28;20106;-55
2022/01/22 11:25:35;;;;;;;29.55;20.58;;;9.60;77.90;;;;;;5064378;28;20440;-56
2022/01/22 11:28:03;;;;;;;28.70;20.50;;;9.60;77.80;;;;;;5052833;28;20036;-56
2022/01/22 11:30:31;;;;;;;31.52;21.40;;;9.60;77.80;;;;;;5069015;28;20075;-55
2022/01/22 11:33:04;;;;;;;33.83;22.10;;;9.60;77.80;;;;;;5068378;28;20519;-55
2022/01/22 11:35:52;;;;;;;29.25;20.27;;;9.60;77.70;;;;;;5058910;28;20095;-56
2022/01/22 11:38:37;;;;;;;29.38;19.80;;;9.70;77.50;;;;;;5049504;28;20148;-55
2022/01/22 11:41:14;;;;;;;26.55;19.35;;;9.70;77.60;;;;;;5057845;28;20621;-56
2022/01/22 11:44:15;;;;;;;27.98;20.13;;;9.70;77.60;;;;;;5027482;28;20053;-56
2022/01/22 11:46:58;;;;;;;30.20;20.52;;;9.70;77.60;;;;;;5035501;28;20053;-57
2022/01/22 11:49:28;;;;;;;25.65;17.35;;;9.80;77.60;;;;;;5050050;28;20049;-56
2022/01/22 11:52:07;;;;;;;29.38;18.98;;;9.80;77.60;;;;;;5038187;28;20034;-55
2022/01/22 11:55:01;;;;;;;25.30;18.20;;;9.80;77.50;;;;;;5038332;28;20095;-56
2022/01/22 11:57:31;;;;;;;26.60;18.67;;;9.80;77.40;;;;;;5046274;28;20114;-56
2022/01/22 12:00:30;;;;;;;26.42;18.95;;;9.90;77.40;;;;;;5030337;28;20037;-56
2022/01/22 12:03:03;;;;;;;26.50;19.35;;;9.90;77.20;;;;;;5000639;28;20103;-56
2022/01/22 12:05:54;;;;;;;24.90;17.33;;;9.90;77.10;;;;;;5034727;28;20037;-56
2022/01/22 12:08:22;;;;;;;27.45;18.25;;;9.90;77.10;;;;;;5055360;28;20044;-57
2022/01/22 12:16:39;;;;;;;25.88;17.63;;;9.90;77.00;;;;;;5034542;28;20041;-55
2022/01/22 12:19:46;;;;;;;27.60;17.85;;;9.90;77.00;;;;;;5050472;28;20044;-56
2022/01/22 12:22:34;;;;;;;25.67;18.40;;;9.90;77.00;;;;;;5037617;28;20045;-56
2022/01/22 12:25:09;;;;;;;28.63;19.10;;;9.90;76.90;;;;;;5041432;28;20041;-55
2022/01/22 12:27:47;;;;;;;27.70;19.00;;;10.00;77.00;;;;;;5044526;28;20037;-57
2022/01/22 12:30:16;;;;;;;29.25;20.45;;;10.00;76.90;;;;;;5032399;28;20029;-57
2022/01/22 12:32:47;;;;;;;26.35;19.20;;;9.90;76.90;;;;;;5037059;28;20087;-57
2022/01/22 12:35:31;;;;;;;28.13;20.13;;;9.90;76.90;;;;;;5039541;28;20103;-55
2022/01/22 12:38:48;;;;;;;27.38;18.33;;;10.00;76.90;;;;;;5047259;28;20033;-57
2022/01/22 12:44:13;;;;;;;25.65;20.10;;;10.00;77.00;;;;;;5042704;28;20123;-56
2022/01/22 12:46:51;;;;;;;25.60;19.67;;;10.00;77.00;;;;;;5040294;28;20675;-56
2022/01/22 12:49:20;;;;;;;29.75;20.75;;;10.00;77.00;;;;;;5020872;28;20532;-56
2022/01/22 12:52:04;;;;;;;28.75;20.15;;;10.00;76.90;;;;;;5038495;28;20416;-56
2022/01/22 12:54:40;;;;;;;27.67;20.15;;;10.00;76.90;;;;;;5038492;28;20041;-57
2022/01/22 12:57:19;;;;;;;30.60;19.85;;;10.00;77.60;;;;;;5042787;28;20049;-57
2022/01/22 12:59:49;;;;;;;30.35;21.15;;;10.00;77.00;;;;;;5030011;28;20128;-55
2022/01/22 13:02:34;;;;;;;28.52;20.08;;;10.00;77.00;;;;;;5043133;28;20078;-54
2022/01/22 13:05:03;;;;;;;29.27;20.38;;;10.00;77.10;;;;;;5044459;28;20029;-54
2022/01/22 13:08:01;;;;;;;28.63;19.50;;;10.00;77.10;;;;;;5046118;28;20103;-55
2022/01/22 13:10:48;;;;;;;31.17;21.08;;;10.00;77.00;;;;;;5017992;28;20138;-55
2022/01/22 13:13:18;;;;;;;27.77;19.65;;;10.00;77.00;;;;;;5041027;28;20547;-54
2022/01/22 13:15:45;;;;;;;26.48;19.77;;;10.10;77.00;;;;;;5029453;28;20044;-58
2022/01/22 13:18:15;;;;;;;28.67;19.60;;;10.10;77.70;;;;;;5038774;28;20033;-55
2022/01/22 13:20:48;;;;;;;29.38;20.67;;;10.10;77.10;;;;;;5030240;28;20041;-57
2022/01/22 13:23:21;;;;;;;28.30;20.35;;;10.10;77.10;;;;;;5043820;28;20071;-55
2022/01/22 13:25:47;;;;;;;29.70;20.85;;;10.10;77.00;;;;;;5022433;28;20068;-57
2022/01/22 13:28:15;;;;;;;31.38;20.83;;;10.10;77.00;;;;;;5032315;28;20049;-57
2022/01/22 13:31:00;;;;;;;24.02;19.42;;;10.00;76.90;;;;;;5034976;28;20067;-57
2022/01/22 13:49:50;;;;;;;29.92;21.65;;;10.00;76.80;;;;;;5041980;28;20041;-56
2022/01/22 13:52:19;;;;;;;26.73;20.50;;;10.00;76.80;;;;;;5034016;28;20369;-56
2022/01/22 13:54:51;;;;;;;33.85;21.02;;;10.00;76.80;;;;;;5034408;28;20045;-57
2022/01/22 13:57:23;;;;;;;28.13;20.23;;;9.90;76.80;;;;;;5043801;28;20551;-56
2022/01/22 13:59:53;;;;;;;27.00;20.50;;;9.90;76.70;;;;;;5034067;28;20037;-57
2022/01/22 14:05:05;;;;;;;30.45;21.08;;;9.90;76.80;;;;;;5026229;28;20055;-55
2022/01/22 14:07:36;;;;;;;29.35;22.05;;;9.90;76.90;;;;;;5046649;28;20041;-55
2022/01/22 14:10:05;;;;;;;29.70;21.05;;;9.90;76.90;;;;;;5040364;28;20045;-56
2022/01/22 14:12:41;;;;;;;30.63;20.38;;;9.90;77.00;;;;;;5036002;28;20041;-56
2022/01/22 14:15:17;;;;;;;32.97;21.80;;;9.90;76.90;;;;;;5026653;28;20123;-57
2022/01/22 14:20:38;;;;;;;27.42;19.23;;;9.90;77.00;;;;;;5029698;28;20071;-57
2022/01/22 14:23:08;;;;;;;25.60;18.63;;;9.90;76.90;;;;;;5035762;28;20136;-57
2022/01/22 14:25:51;;;;;;;30.40;20.05;;;9.90;76.90;;;;;;5037133;28;20052;-53
2022/01/22 14:28:18;;;;;;;27.88;18.95;;;9.80;76.90;;;;;;5045263;28;20456;-56
2022/01/22 14:30:47;;;;;;;27.15;19.33;;;9.80;76.90;;;;;;5032053;28;20425;-57
2022/01/22 14:33:17;;;;;;;29.13;20.58;;;9.90;77.00;;;;;;5033079;28;20060;-56
2022/01/22 14:36:00;;;;;;;27.88;18.88;;;9.80;76.90;;;;;;5032585;28;20396;-56
2022/01/22 14:44:12;;;;;;;29.47;19.43;;;9.80;77.10;;;;;;5031541;28;20143;-56
2022/01/22 14:46:44;;;;;;;26.55;18.13;;;9.80;77.00;;;;;;5039151;28;20656;-57
2022/01/22 14:49:13;;;;;;;30.52;19.25;;;9.80;77.20;;;;;;5056519;28;20051;-55
2022/01/22 14:51:40;;;;;;;28.33;18.25;;;9.80;77.20;;;;;;5034910;28;20041;-55
2022/01/22 14:54:07;;;;;;;28.63;20.05;;;9.80;77.30;;;;;;5036199;28;20144;-55
2022/01/22 14:56:34;;;;;;;33.38;23.23;;;9.80;77.30;;;;;;5035004;28;20052;-56
2022/01/22 14:59:01;;;;;;;32.55;21.10;;;9.70;77.30;;;;;;5033665;28;20120;-58
2022/01/22 15:01:28;;;;;;;31.52;20.80;;;9.80;77.40;;;;;;5039344;28;20106;-57
2022/01/22 15:03:55;;;;;;;30.15;20.65;;;9.80;77.30;;;;;;5047181;28;20492;-57
2022/01/22 15:06:42;;;;;;;26.35;19.75;;;9.80;77.20;;;;;;5042137;28;20515;-55
2022/01/22 15:09:09;;;;;;;31.92;20.77;;;9.80;77.20;;;;;;5049728;28;20101;-57
2022/01/22 15:11:36;;;;;;;34.60;20.60;;;9.80;77.20;;;;;;5037620;28;20460;-57
2022/01/22 15:14:04;;;;;;;29.13;19.20;;;9.80;77.20;;;;;;5040064;28;20033;-56
2022/01/22 15:19:26;;;;;;;29.02;19.88;;;9.70;77.20;;;;;;5012741;28;20061;-55
2022/01/22 15:21:53;;;;;;;32.20;20.80;;;9.70;77.20;;;;;;5044177;28;20055;-57